Time;durP1;ratioP1;P1;durP2;ratioP2;P2;SDS_P1;SDS_P2;PMS_P1;PMS_P2;Temp;Humidity;BMP_temperature;BMP_pressure;BME280_temperature;BME280_humidity;BME280_pressure;Samples;Min_cycle;Max_cycle;Signal;HPM_P1;HPM_P2
2022/02/03 00:05:07;;;;;;;28.30;10.77;;;7.90;99.90;;;;;;6648919;88;20224;-75
2022/02/03 00:25:32;;;;;;;24.90;9.40;;;7.80;99.90;;;;;;6650522;78;20671;-73
2022/02/03 00:56:12;;;;;;;22.60;9.77;;;7.90;99.90;;;;;;6640456;88;20657;-74
2022/02/03 01:06:14;;;;;;;25.10;9.63;;;7.90;99.90;;;;;;6637674;88;20222;-75
2022/02/03 01:57:12;;;;;;;19.52;9.27;;;8.20;99.90;;;;;;6655918;88;20200;-74
2022/02/03 02:07:25;;;;;;;20.60;9.77;;;8.10;99.90;;;;;;6666825;88;20200;-74
2022/02/03 02:17:49;;;;;;;19.27;9.77;;;8.10;99.90;;;;;;6665128;88;20211;-72
2022/02/03 02:48:47;;;;;;;23.00;10.50;;;8.00;99.90;;;;;;6654877;88;20251;-73
2022/02/03 03:40:03;;;;;;;7.72;3.10;;;8.20;99.90;;;;;;6657125;88;20542;-72
2022/02/03 03:50:13;;;;;;;5.05;3.00;;;8.30;99.90;;;;;;6657546;88;20269;-73
2022/02/03 04:32:30;;;;;;;16.62;7.60;;;8.30;99.90;;;;;;6652245;88;20204;-72
2022/02/03 04:54:12;;;;;;;10.93;5.95;;;8.10;99.90;;;;;;6651145;88;20200;-72
2022/02/03 06:17:30;;;;;;;;;;;8.60;99.90;;;;;;6655028;88;20232;-73
2022/02/03 06:27:39;;;;;;;9.57;4.80;;;8.50;99.90;;;;;;6659068;78;20578;-75
2022/02/03 06:37:40;;;;;;;9.40;4.37;;;8.30;99.90;;;;;;6636724;88;20363;-75
2022/02/03 06:47:59;;;;;;;9.15;3.95;;;8.60;99.90;;;;;;6637743;88;20935;-76
2022/02/03 06:58:05;;;;;;;4.78;2.37;;;8.60;99.90;;;;;;6629215;88;20237;-76
2022/02/03 07:08:11;;;;;;;2.87;1.65;;;8.60;99.90;;;;;;6637140;88;20173;-74
2022/02/03 07:18:11;;;;;;;4.12;1.30;;;8.70;99.90;;;;;;6628823;88;20304;-76
2022/02/03 07:28:12;;;;;;;3.65;1.00;;;8.70;99.90;;;;;;6630320;88;20232;-75
2022/02/03 07:38:12;;;;;;;4.05;1.00;;;8.60;99.90;;;;;;6629984;89;20217;-76
2022/02/03 07:48:13;;;;;;;1.65;0.88;;;8.70;99.90;;;;;;6634643;88;20218;-77
2022/02/03 07:58:14;;;;;;;3.50;1.10;;;8.90;99.90;;;;;;6634985;88;20206;-76
2022/02/03 08:18:20;;;;;;;3.00;1.25;;;8.80;99.90;;;;;;6631825;88;20193;-76
2022/02/03 08:28:43;;;;;;;2.50;1.40;;;9.00;99.90;;;;;;6664816;88;20620;-76
2022/02/03 08:38:47;;;;;;;2.83;1.27;;;9.10;99.90;;;;;;6702323;88;20280;-76
2022/02/03 08:48:48;;;;;;;2.97;1.45;;;9.30;99.90;;;;;;6698389;88;20709;-76
2022/02/03 08:59:14;;;;;;;3.70;1.40;;;9.20;99.90;;;;;;6698032;88;20262;-76
2022/02/03 09:31:47;;;;;;;2.85;1.45;;;9.30;99.90;;;;;;6702584;88;20202;-76
2022/02/03 09:40:30;;;;;;;1.92;1.02;;;9.50;99.90;;;;;;6700156;88;20265;-76
2022/02/03 09:51:27;;;;;;;1.52;0.70;;;9.50;99.90;;;;;;6708849;88;20279;-77
2022/02/03 10:11:17;;;;;;;1.20;0.40;;;9.40;99.90;;;;;;6690621;88;20211;-76
2022/02/03 10:21:22;;;;;;;1.12;0.47;;;9.20;99.90;;;;;;6698545;88;20178;-76
2022/02/03 10:31:34;;;;;;;0.75;0.30;;;9.30;99.90;;;;;;6663005;88;20935;-77
2022/02/03 11:03:02;;;;;;;0.77;0.10;;;9.40;99.90;;;;;;6629190;89;20842;-76
2022/02/03 11:13:03;;;;;;;0.43;0.20;;;9.40;99.90;;;;;;6628649;89;20351;-76
2022/02/03 11:44:04;;;;;;;0.55;0.20;;;9.30;99.90;;;;;;6637674;89;21068;-76
2022/02/03 12:25:40;;;;;;;0.40;0.20;;;9.50;99.90;;;;;;6636626;88;20363;-76
2022/02/03 12:46:05;;;;;;;0.52;0.20;;;9.10;99.90;;;;;;6627465;89;20162;-76
2022/02/03 12:56:09;;;;;;;0.62;0.20;;;9.20;99.90;;;;;;6641475;88;20231;-76
2022/02/03 13:06:17;;;;;;;0.93;0.25;;;9.00;99.90;;;;;;6635680;88;20255;-76
2022/02/03 13:16:18;;;;;;;0.50;0.17;;;8.70;99.90;;;;;;6634566;88;20194;-76
2022/02/03 13:26:25;;;;;;;0.90;0.30;;;8.80;99.90;;;;;;6644934;88;20256;-77
2022/02/03 13:36:39;;;;;;;0.75;0.30;;;8.70;99.90;;;;;;6623245;89;20215;-77
2022/02/03 13:46:44;;;;;;;1.08;0.22;;;8.60;99.90;;;;;;6628552;89;20230;-77
2022/02/03 14:17:50;;;;;;;2.05;1.17;;;7.90;99.90;;;;;;6617181;89;20772;-77
2022/02/03 14:27:51;;;;;;;4.03;1.00;;;7.90;99.90;;;;;;6622497;88;20254;-77
2022/02/03 14:38:04;;;;;;;3.35;1.02;;;7.90;99.90;;;;;;6628724;89;20778;-78
2022/02/03 14:48:06;;;;;;;2.30;1.10;;;8.00;99.90;;;;;;6628534;89;20288;-77
2022/02/03 14:58:15;;;;;;;3.50;1.58;;;8.10;99.90;;;;;;6630587;89;20712;-77
2022/02/03 15:08:19;;;;;;;3.35;1.40;;;7.90;99.90;;;;;;6627693;89;20182;-78
2022/02/03 15:18:20;;;;;;;2.47;1.50;;;7.90;99.90;;;;;;6639101;89;20189;-77
2022/02/03 15:28:21;;;;;;;5.03;2.55;;;7.80;99.90;;;;;;6629087;88;20248;-77
2022/02/03 15:38:23;;;;;;;3.87;2.08;;;7.80;99.90;;;;;;6629622;88;20227;-77
2022/02/03 16:19:02;;;;;;;5.95;2.62;;;7.50;99.90;;;;;;6629554;88;20279;-77
2022/02/03 17:00:06;;;;;;;5.65;3.20;;;7.20;99.90;;;;;;6638553;88;20205;-80
2022/02/03 17:10:07;;;;;;;5.57;3.00;;;7.20;99.90;;;;;;6628287;88;20226;-77
2022/02/03 17:20:08;;;;;;;6.12;3.20;;;7.20;99.90;;;;;;6629848;88;20200;-76
2022/02/03 17:30:18;;;;;;;5.32;3.00;;;7.20;99.90;;;;;;6628163;88;20455;-77
2022/02/03 18:32:03;;;;;;;7.10;3.40;;;7.30;99.90;;;;;;6616246;89;20062;-77
2022/02/03 18:52:21;;;;;;;8.65;4.07;;;7.30;99.90;;;;;;6628708;89;20241;-78
2022/02/03 19:03:01;;;;;;;8.77;4.20;;;7.30;99.90;;;;;;6629070;89;20242;-77
2022/02/03 20:14:14;;;;;;;7.15;4.00;;;7.10;99.90;;;;;;6631573;89;20220;-78
2022/02/03 20:24:14;;;;;;;8.13;4.07;;;7.20;99.90;;;;;;6631967;89;20210;-78
2022/02/03 20:34:15;;;;;;;7.10;4.30;;;7.10;99.90;;;;;;6631426;89;20232;-77
2022/02/03 20:44:15;;;;;;;7.65;4.70;;;7.10;99.90;;;;;;6631900;89;20201;-78
2022/02/03 20:54:16;;;;;;;7.70;4.50;;;7.10;99.90;;;;;;6640129;88;20231;-77
2022/02/03 21:04:30;;;;;;;6.68;4.35;;;7.00;99.90;;;;;;6635575;88;20569;-77
2022/02/03 21:14:32;;;;;;;7.18;4.35;;;7.10;99.90;;;;;;6626386;88;20203;-77
2022/02/03 21:24:33;;;;;;;7.80;4.70;;;7.20;99.90;;;;;;6653585;88;20186;-77
2022/02/03 21:34:33;;;;;;;6.50;4.30;;;7.20;99.90;;;;;;6624770;89;20217;-77
2022/02/03 21:44:34;;;;;;;6.50;4.15;;;7.10;99.90;;;;;;6622627;88;20303;-77
2022/02/03 21:54:36;;;;;;;10.38;5.15;;;7.00;99.90;;;;;;6633748;88;20336;-77
2022/02/03 22:04:37;;;;;;;8.13;4.87;;;6.90;99.90;;;;;;6627602;89;20226;-77
2022/02/03 22:14:38;;;;;;;10.33;5.30;;;6.90;99.90;;;;;;6662903;88;20193;-77
2022/02/03 22:24:51;;;;;;;8.75;5.25;;;6.90;99.90;;;;;;6656654;88;20577;-77
2022/02/03 22:45:18;;;;;;;7.82;4.40;;;6.90;99.90;;;;;;6694756;88;20190;-77
2022/02/03 22:55:18;;;;;;;7.15;4.20;;;6.90;99.90;;;;;;6687658;78;20195;-74
2022/02/03 23:05:19;;;;;;;7.03;4.28;;;7.00;99.90;;;;;;6658394;89;20203;-74
2022/02/03 23:25:29;;;;;;;9.43;4.95;;;6.90;99.90;;;;;;6663268;89;20621;-75
2022/02/03 23:35:32;;;;;;;9.02;5.00;;;6.90;99.90;;;;;;6658841;88;20207;-74
